Werkendam, Netherlands
Current Conditions -  °F | °C
As of 11:25 PM on Sunday 23 Nov 2014 (Local Time) from EHGR Reporting Station
Drizzle Drizzle  
Wind Chill: 50°   Ceiling: 500
Heat Index: 50°   Visibility: 4mi
Dew Point: 50°   Wind: 12mph
Humidity: 100%   Direction: 330°NNW
Pressure: 29.97"   Gusts: NA
Location:  51.81°N, 4.89°E
Report Text: EHGR 232225Z AUTO 33010KT 6000 DZ FEW004 BKN005 OVC007 10/10 Q1015 YLO
Loading
Personal Weather Stations






























Interactive Weather Map New forecast layout! Learn more

10-Day Weather Forecast

Advertisements
Track Severe Weather on mobile